sensor_id;sensor_type;location;lat;lon;timestamp;P1;durP1;ratioP1;P2;durP2;ratioP2
47812;SDS011;34221;45.296;9.516;2023-05-09T00:00:14;11.98;;;9.77;;
47812;SDS011;34221;45.296;9.516;2023-05-09T00:00:30;12.65;;;9.95;;
47812;SDS011;34221;45.296;9.516;2023-05-09T00:00:45;12.77;;;9.60;;
47812;SDS011;34221;45.296;9.516;2023-05-09T00:01:12;11.65;;;9.40;;
47812;SDS011;34221;45.296;9.516;2023-05-09T00:01:27;12.17;;;10.17;;
47812;SDS011;34221;45.296;9.516;2023-05-09T00:01:44;13.32;;;10.55;;
47812;SDS011;34221;45.296;9.516;2023-05-09T00:01:59;14.48;;;10.95;;
47812;SDS011;34221;45.296;9.516;2023-05-09T00:02:14;13.82;;;10.73;;
47812;SDS011;34221;45.296;9.516;2023-05-09T00:02:29;12.43;;;10.15;;
47812;SDS011;34221;45.296;9.516;2023-05-09T00:02:44;12.52;;;9.85;;
47812;SDS011;34221;45.296;9.516;2023-05-09T00:02:59;13.27;;;10.10;;
47812;SDS011;34221;45.296;9.516;2023-05-09T00:03:13;13.45;;;10.07;;
47812;SDS011;34221;45.296;9.516;2023-05-09T00:03:28;12.57;;;9.83;;
47812;SDS011;34221;45.296;9.516;2023-05-09T00:03:43;12.57;;;9.95;;
47812;SDS011;34221;45.296;9.516;2023-05-09T00:03:58;12.82;;;9.88;;
47812;SDS011;34221;45.296;9.516;2023-05-09T00:04:13;13.50;;;9.90;;
47812;SDS011;34221;45.296;9.516;2023-05-09T00:04:29;14.10;;;9.98;;
47812;SDS011;34221;45.296;9.516;2023-05-09T00:04:43;13.23;;;9.40;;
47812;SDS011;34221;45.296;9.516;2023-05-09T00:04:59;12.38;;;9.23;;
47812;SDS011;34221;45.296;9.516;2023-05-09T00:05:17;12.93;;;10.02;;
47812;SDS011;34221;45.296;9.516;2023-05-09T00:05:31;14.20;;;9.80;;
47812;SDS011;34221;45.296;9.516;2023-05-09T00:05:46;13.73;;;9.23;;
47812;SDS011;34221;45.296;9.516;2023-05-09T00:06:02;13.98;;;9.32;;
47812;SDS011;34221;45.296;9.516;2023-05-09T00:06:17;14.05;;;9.77;;
47812;SDS011;34221;45.296;9.516;2023-05-09T00:06:32;12.35;;;9.93;;
47812;SDS011;34221;45.296;9.516;2023-05-09T00:06:47;12.93;;;10.02;;
47812;SDS011;34221;45.296;9.516;2023-05-09T00:07:02;13.35;;;9.95;;
47812;SDS011;34221;45.296;9.516;2023-05-09T00:07:17;12.25;;;9.60;;
47812;SDS011;34221;45.296;9.516;2023-05-09T00:07:31;11.45;;;9.65;;
47812;SDS011;34221;45.296;9.516;2023-05-09T00:07:47;11.23;;;9.32;;
47812;SDS011;34221;45.296;9.516;2023-05-09T00:08:02;11.13;;;8.93;;
47812;SDS011;34221;45.296;9.516;2023-05-09T00:08:16;12.20;;;8.88;;
47812;SDS011;34221;45.296;9.516;2023-05-09T00:08:31;13.25;;;9.27;;
47812;SDS011;34221;45.296;9.516;2023-05-09T00:08:46;12.40;;;9.35;;
47812;SDS011;34221;45.296;9.516;2023-05-09T00:09:01;12.27;;;9.80;;
47812;SDS011;34221;45.296;9.516;2023-05-09T00:09:16;12.82;;;9.70;;
47812;SDS011;34221;45.296;9.516;2023-05-09T00:09:31;11.50;;;9.17;;
47812;SDS011;34221;45.296;9.516;2023-05-09T00:09:45;10.48;;;9.05;;
47812;SDS011;34221;45.296;9.516;2023-05-09T00:10:00;11.85;;;8.98;;
47812;SDS011;34221;45.296;9.516;2023-05-09T00:10:15;12.18;;;9.05;;
47812;SDS011;34221;45.296;9.516;2023-05-09T00:10:30;11.95;;;9.13;;
47812;SDS011;34221;45.296;9.516;2023-05-09T00:10:44;13.45;;;9.18;;
47812;SDS011;34221;45.296;9.516;2023-05-09T00:11:00;13.53;;;9.00;;
47812;SDS011;34221;45.296;9.516;2023-05-09T00:11:15;12.30;;;8.65;;
47812;SDS011;34221;45.296;9.516;2023-05-09T00:11:29;11.80;;;8.63;;
47812;SDS011;34221;45.296;9.516;2023-05-09T00:11:44;11.07;;;8.45;;
47812;SDS011;34221;45.296;9.516;2023-05-09T00:11:59;11.20;;;8.83;;
47812;SDS011;34221;45.296;9.516;2023-05-09T00:12:14;11.50;;;9.13;;
47812;SDS011;34221;45.296;9.516;2023-05-09T00:12:29;11.88;;;8.98;;
47812;SDS011;34221;45.296;9.516;2023-05-09T00:12:44;13.25;;;9.98;;
47812;SDS011;34221;45.296;9.516;2023-05-09T00:13:00;13.52;;;10.07;;
47812;SDS011;34221;45.296;9.516;2023-05-09T00:13:33;10.88;;;8.80;;
47812;SDS011;34221;45.296;9.516;2023-05-09T00:13:49;11.13;;;8.93;;
47812;SDS011;34221;45.296;9.516;2023-05-09T00:14:04;11.90;;;8.98;;
47812;SDS011;34221;45.296;9.516;2023-05-09T00:14:18;10.77;;;8.50;;
47812;SDS011;34221;45.296;9.516;2023-05-09T00:14:33;11.20;;;8.70;;
47812;SDS011;34221;45.296;9.516;2023-05-09T00:14:48;13.18;;;9.10;;
47812;SDS011;34221;45.296;9.516;2023-05-09T00:15:04;12.63;;;9.30;;
47812;SDS011;34221;45.296;9.516;2023-05-09T00:15:21;12.27;;;9.27;;
47812;SDS011;34221;45.296;9.516;2023-05-09T00:15:37;12.20;;;9.15;;
47812;SDS011;34221;45.296;9.516;2023-05-09T00:15:52;11.68;;;8.90;;
47812;SDS011;34221;45.296;9.516;2023-05-09T00:16:07;12.32;;;9.13;;
47812;SDS011;34221;45.296;9.516;2023-05-09T00:16:22;13.57;;;9.40;;
47812;SDS011;34221;45.296;9.516;2023-05-09T00:16:37;12.63;;;9.07;;
47812;SDS011;34221;45.296;9.516;2023-05-09T00:16:51;10.90;;;8.80;;
47812;SDS011;34221;45.296;9.516;2023-05-09T00:17:06;10.85;;;9.07;;
47812;SDS011;34221;45.296;9.516;2023-05-09T00:17:22;11.65;;;9.15;;
47812;SDS011;34221;45.296;9.516;2023-05-09T00:17:38;11.80;;;8.93;;
47812;SDS011;34221;45.296;9.516;2023-05-09T00:17:53;12.32;;;9.15;;
47812;SDS011;34221;45.296;9.516;2023-05-09T00:18:08;11.52;;;8.80;;
47812;SDS011;34221;45.296;9.516;2023-05-09T00:18:22;11.32;;;9.38;;
47812;SDS011;34221;45.296;9.516;2023-05-09T00:18:37;13.37;;;10.13;;
47812;SDS011;34221;45.296;9.516;2023-05-09T00:18:55;14.02;;;9.93;;
47812;SDS011;34221;45.296;9.516;2023-05-09T00:19:11;12.98;;;9.65;;
47812;SDS011;34221;45.296;9.516;2023-05-09T00:19:26;12.35;;;9.00;;
47812;SDS011;34221;45.296;9.516;2023-05-09T00:19:40;11.85;;;8.70;;
47812;SDS011;34221;45.296;9.516;2023-05-09T00:19:56;12.48;;;9.30;;
47812;SDS011;34221;45.296;9.516;2023-05-09T00:20:11;13.43;;;9.18;;
47812;SDS011;34221;45.296;9.516;2023-05-09T00:20:26;12.88;;;8.70;;
47812;SDS011;34221;45.296;9.516;2023-05-09T00:20:41;12.50;;;9.13;;
47812;SDS011;34221;45.296;9.516;2023-05-09T00:20:57;12.57;;;9.70;;
47812;SDS011;34221;45.296;9.516;2023-05-09T00:21:12;11.38;;;8.98;;
47812;SDS011;34221;45.296;9.516;2023-05-09T00:21:26;11.50;;;8.43;;
47812;SDS011;34221;45.296;9.516;2023-05-09T00:21:41;11.03;;;8.47;;
47812;SDS011;34221;45.296;9.516;2023-05-09T00:21:56;10.80;;;8.63;;
47812;SDS011;34221;45.296;9.516;2023-05-09T00:22:11;11.48;;;8.80;;
47812;SDS011;34221;45.296;9.516;2023-05-09T00:22:26;11.55;;;8.98;;
47812;SDS011;34221;45.296;9.516;2023-05-09T00:22:41;12.25;;;9.20;;
47812;SDS011;34221;45.296;9.516;2023-05-09T00:22:56;13.07;;;9.40;;
47812;SDS011;34221;45.296;9.516;2023-05-09T00:23:10;13.55;;;9.52;;
47812;SDS011;34221;45.296;9.516;2023-05-09T00:23:25;12.43;;;9.05;;
47812;SDS011;34221;45.296;9.516;2023-05-09T00:23:40;11.63;;;8.88;;
47812;SDS011;34221;45.296;9.516;2023-05-09T00:23:55;11.13;;;8.90;;
47812;SDS011;34221;45.296;9.516;2023-05-09T00:24:10;10.73;;;8.98;;
47812;SDS011;34221;45.296;9.516;2023-05-09T00:24:24;12.53;;;9.27;;
47812;SDS011;34221;45.296;9.516;2023-05-09T00:24:39;13.90;;;9.40;;
47812;SDS011;34221;45.296;9.516;2023-05-09T00:24:54;11.85;;;8.93;;
47812;SDS011;34221;45.296;9.516;2023-05-09T00:25:09;12.77;;;9.55;;
47812;SDS011;34221;45.296;9.516;2023-05-09T00:25:24;13.57;;;9.95;;
47812;SDS011;34221;45.296;9.516;2023-05-09T00:25:39;11.55;;;8.95;;
47812;SDS011;34221;45.296;9.516;2023-05-09T00:25:54;12.85;;;9.57;;
47812;SDS011;34221;45.296;9.516;2023-05-09T00:26:09;13.07;;;9.38;;
47812;SDS011;34221;45.296;9.516;2023-05-09T00:26:25;12.70;;;8.73;;
47812;SDS011;34221;45.296;9.516;2023-05-09T00:26:40;12.77;;;9.02;;
47812;SDS011;34221;45.296;9.516;2023-05-09T00:26:54;12.00;;;8.85;;
47812;SDS011;34221;45.296;9.516;2023-05-09T00:27:09;11.68;;;8.48;;
47812;SDS011;34221;45.296;9.516;2023-05-09T00:27:27;12.40;;;8.82;;
47812;SDS011;34221;45.296;9.516;2023-05-09T00:27:43;12.38;;;8.73;;
47812;SDS011;34221;45.296;9.516;2023-05-09T00:27:59;12.07;;;9.13;;
47812;SDS011;34221;45.296;9.516;2023-05-09T00:28:13;11.48;;;9.25;;
47812;SDS011;34221;45.296;9.516;2023-05-09T00:28:28;11.03;;;8.93;;
47812;SDS011;34221;45.296;9.516;2023-05-09T00:28:43;11.45;;;8.75;;
47812;SDS011;34221;45.296;9.516;2023-05-09T00:28:58;12.00;;;8.75;;
47812;SDS011;34221;45.296;9.516;2023-05-09T00:29:12;13.15;;;9.60;;
47812;SDS011;34221;45.296;9.516;2023-05-09T00:29:27;13.23;;;9.17;;
47812;SDS011;34221;45.296;9.516;2023-05-09T00:29:42;12.35;;;8.43;;
47812;SDS011;34221;45.296;9.516;2023-05-09T00:29:57;12.35;;;8.88;;
47812;SDS011;34221;45.296;9.516;2023-05-09T00:30:11;11.20;;;9.02;;
47812;SDS011;34221;45.296;9.516;2023-05-09T00:30:26;11.82;;;8.70;;
47812;SDS011;34221;45.296;9.516;2023-05-09T00:30:41;12.98;;;8.93;;
47812;SDS011;34221;45.296;9.516;2023-05-09T00:30:56;13.07;;;9.52;;
47812;SDS011;34221;45.296;9.516;2023-05-09T00:31:10;13.73;;;9.27;;
47812;SDS011;34221;45.296;9.516;2023-05-09T00:31:25;12.32;;;9.13;;
47812;SDS011;34221;45.296;9.516;2023-05-09T00:31:40;13.15;;;9.38;;
47812;SDS011;34221;45.296;9.516;2023-05-09T00:31:55;13.77;;;9.30;;
47812;SDS011;34221;45.296;9.516;2023-05-09T00:32:10;11.68;;;9.23;;
47812;SDS011;34221;45.296;9.516;2023-05-09T00:32:25;11.32;;;8.63;;
47812;SDS011;34221;45.296;9.516;2023-05-09T00:32:42;11.13;;;8.32;;
47812;SDS011;34221;45.296;9.516;2023-05-09T00:32:57;11.93;;;9.23;;
47812;SDS011;34221;45.296;9.516;2023-05-09T00:33:11;14.02;;;9.50;;
47812;SDS011;34221;45.296;9.516;2023-05-09T00:33:26;12.48;;;9.05;;
47812;SDS011;34221;45.296;9.516;2023-05-09T00:33:41;14.50;;;9.20;;
47812;SDS011;34221;45.296;9.516;2023-05-09T00:33:56;14.73;;;9.00;;
47812;SDS011;34221;45.296;9.516;2023-05-09T00:34:10;11.00;;;8.48;;
47812;SDS011;34221;45.296;9.516;2023-05-09T00:34:25;12.15;;;8.85;;
47812;SDS011;34221;45.296;9.516;2023-05-09T00:34:40;13.50;;;9.60;;
47812;SDS011;34221;45.296;9.516;2023-05-09T00:34:55;11.98;;;9.15;;
47812;SDS011;34221;45.296;9.516;2023-05-09T00:35:09;9.90;;;8.17;;
47812;SDS011;34221;45.296;9.516;2023-05-09T00:35:24;10.25;;;8.48;;
47812;SDS011;34221;45.296;9.516;2023-05-09T00:35:39;12.13;;;8.98;;
47812;SDS011;34221;45.296;9.516;2023-05-09T00:35:54;12.40;;;9.00;;
47812;SDS011;34221;45.296;9.516;2023-05-09T00:36:09;11.98;;;9.05;;
47812;SDS011;34221;45.296;9.516;2023-05-09T00:36:24;12.25;;;8.57;;
47812;SDS011;34221;45.296;9.516;2023-05-09T00:36:39;12.20;;;8.27;;
47812;SDS011;34221;45.296;9.516;2023-05-09T00:36:53;12.02;;;8.57;;
47812;SDS011;34221;45.296;9.516;2023-05-09T00:37:08;11.65;;;8.77;;
47812;SDS011;34221;45.296;9.516;2023-05-09T00:37:23;10.77;;;8.60;;
47812;SDS011;34221;45.296;9.516;2023-05-09T00:37:38;12.02;;;8.65;;
47812;SDS011;34221;45.296;9.516;2023-05-09T00:37:52;12.93;;;8.93;;
47812;SDS011;34221;45.296;9.516;2023-05-09T00:38:07;11.45;;;9.10;;
47812;SDS011;34221;45.296;9.516;2023-05-09T00:38:22;11.15;;;9.05;;
47812;SDS011;34221;45.296;9.516;2023-05-09T00:38:37;11.75;;;8.90;;
47812;SDS011;34221;45.296;9.516;2023-05-09T00:38:51;12.27;;;8.67;;
47812;SDS011;34221;45.296;9.516;2023-05-09T00:39:06;11.67;;;8.97;;
47812;SDS011;34221;45.296;9.516;2023-05-09T00:39:21;10.30;;;9.02;;
47812;SDS011;34221;45.296;9.516;2023-05-09T00:39:36;11.50;;;9.35;;
47812;SDS011;34221;45.296;9.516;2023-05-09T00:39:50;13.55;;;9.52;;
47812;SDS011;34221;45.296;9.516;2023-05-09T00:40:05;12.27;;;9.38;;
47812;SDS011;34221;45.296;9.516;2023-05-09T00:40:22;11.35;;;9.63;;
47812;SDS011;34221;45.296;9.516;2023-05-09T00:40:37;12.07;;;9.80;;
47812;SDS011;34221;45.296;9.516;2023-05-09T00:40:52;11.60;;;9.40;;
47812;SDS011;34221;45.296;9.516;2023-05-09T00:41:06;13.27;;;9.25;;
47812;SDS011;34221;45.296;9.516;2023-05-09T00:41:21;13.82;;;9.38;;
47812;SDS011;34221;45.296;9.516;2023-05-09T00:41:36;11.77;;;9.18;;
47812;SDS011;34221;45.296;9.516;2023-05-09T00:41:51;11.48;;;9.07;;
47812;SDS011;34221;45.296;9.516;2023-05-09T00:42:06;11.63;;;8.70;;
47812;SDS011;34221;45.296;9.516;2023-05-09T00:42:21;11.90;;;8.63;;
47812;SDS011;34221;45.296;9.516;2023-05-09T00:42:35;11.47;;;8.70;;
47812;SDS011;34221;45.296;9.516;2023-05-09T00:42:50;10.93;;;8.80;;
47812;SDS011;34221;45.296;9.516;2023-05-09T00:43:08;12.52;;;8.88;;
47812;SDS011;34221;45.296;9.516;2023-05-09T00:43:22;12.52;;;8.85;;
47812;SDS011;34221;45.296;9.516;2023-05-09T00:43:37;12.53;;;9.17;;
47812;SDS011;34221;45.296;9.516;2023-05-09T00:43:52;12.10;;;9.23;;
47812;SDS011;34221;45.296;9.516;2023-05-09T00:44:07;12.90;;;9.45;;
47812;SDS011;34221;45.296;9.516;2023-05-09T00:44:22;12.40;;;9.27;;
47812;SDS011;34221;45.296;9.516;2023-05-09T00:44:36;11.63;;;9.15;;
47812;SDS011;34221;45.296;9.516;2023-05-09T00:44:51;11.45;;;9.07;;
47812;SDS011;34221;45.296;9.516;2023-05-09T00:45:06;11.88;;;9.07;;
47812;SDS011;34221;45.296;9.516;2023-05-09T00:45:21;13.07;;;9.20;;
47812;SDS011;34221;45.296;9.516;2023-05-09T00:45:42;13.73;;;9.48;;
47812;SDS011;34221;45.296;9.516;2023-05-09T00:45:58;11.77;;;8.75;;
47812;SDS011;34221;45.296;9.516;2023-05-09T00:46:13;11.32;;;8.60;;
47812;SDS011;34221;45.296;9.516;2023-05-09T00:46:28;10.55;;;8.43;;
47812;SDS011;34221;45.296;9.516;2023-05-09T00:46:43;11.70;;;8.63;;
47812;SDS011;34221;45.296;9.516;2023-05-09T00:46:58;12.27;;;8.85;;
47812;SDS011;34221;45.296;9.516;2023-05-09T00:47:12;12.95;;;9.10;;
47812;SDS011;34221;45.296;9.516;2023-05-09T00:47:27;13.70;;;9.63;;
47812;SDS011;34221;45.296;9.516;2023-05-09T00:47:42;12.85;;;9.80;;
47812;SDS011;34221;45.296;9.516;2023-05-09T00:47:57;11.83;;;9.53;;
47812;SDS011;34221;45.296;9.516;2023-05-09T00:48:13;15.23;;;9.67;;
47812;SDS011;34221;45.296;9.516;2023-05-09T00:48:28;17.00;;;9.75;;
47812;SDS011;34221;45.296;9.516;2023-05-09T00:48:43;12.73;;;9.18;;
47812;SDS011;34221;45.296;9.516;2023-05-09T00:48:59;12.85;;;9.38;;
47812;SDS011;34221;45.296;9.516;2023-05-09T00:49:14;13.65;;;9.43;;
47812;SDS011;34221;45.296;9.516;2023-05-09T00:49:29;11.88;;;9.20;;
47812;SDS011;34221;45.296;9.516;2023-05-09T00:49:44;11.52;;;9.20;;
47812;SDS011;34221;45.296;9.516;2023-05-09T00:49:59;12.70;;;9.20;;
47812;SDS011;34221;45.296;9.516;2023-05-09T00:50:15;12.02;;;8.93;;
47812;SDS011;34221;45.296;9.516;2023-05-09T00:50:30;11.75;;;9.00;;
47812;SDS011;34221;45.296;9.516;2023-05-09T00:50:44;12.05;;;9.25;;
47812;SDS011;34221;45.296;9.516;2023-05-09T00:51:00;12.05;;;9.50;;
47812;SDS011;34221;45.296;9.516;2023-05-09T00:51:15;12.55;;;9.77;;
47812;SDS011;34221;45.296;9.516;2023-05-09T00:51:30;12.65;;;9.63;;
47812;SDS011;34221;45.296;9.516;2023-05-09T00:51:46;13.23;;;9.40;;
47812;SDS011;34221;45.296;9.516;2023-05-09T00:52:01;12.65;;;9.20;;
47812;SDS011;34221;45.296;9.516;2023-05-09T00:52:16;11.60;;;9.35;;
47812;SDS011;34221;45.296;9.516;2023-05-09T00:52:36;12.77;;;10.05;;
47812;SDS011;34221;45.296;9.516;2023-05-09T00:52:51;11.30;;;9.13;;
47812;SDS011;34221;45.296;9.516;2023-05-09T00:53:06;11.27;;;8.88;;
47812;SDS011;34221;45.296;9.516;2023-05-09T00:53:22;12.10;;;9.15;;
47812;SDS011;34221;45.296;9.516;2023-05-09T00:53:38;12.35;;;8.90;;
47812;SDS011;34221;45.296;9.516;2023-05-09T00:53:53;14.05;;;9.13;;
47812;SDS011;34221;45.296;9.516;2023-05-09T00:54:08;14.60;;;10.10;;
47812;SDS011;34221;45.296;9.516;2023-05-09T00:54:25;12.60;;;10.60;;
47812;SDS011;34221;45.296;9.516;2023-05-09T00:54:40;13.23;;;10.45;;
47812;SDS011;34221;45.296;9.516;2023-05-09T00:54:55;13.23;;;10.18;;
47812;SDS011;34221;45.296;9.516;2023-05-09T00:55:10;11.80;;;9.50;;
47812;SDS011;34221;45.296;9.516;2023-05-09T00:55:25;11.75;;;9.35;;
47812;SDS011;34221;45.296;9.516;2023-05-09T00:55:40;11.98;;;9.93;;
47812;SDS011;34221;45.296;9.516;2023-05-09T00:55:55;11.90;;;9.85;;
47812;SDS011;34221;45.296;9.516;2023-05-09T00:56:10;13.43;;;9.57;;
47812;SDS011;34221;45.296;9.516;2023-05-09T00:56:25;15.70;;;9.40;;
47812;SDS011;34221;45.296;9.516;2023-05-09T00:56:40;15.82;;;9.40;;
47812;SDS011;34221;45.296;9.516;2023-05-09T00:56:55;14.43;;;9.55;;
47812;SDS011;34221;45.296;9.516;2023-05-09T00:57:10;12.45;;;8.98;;
47812;SDS011;34221;45.296;9.516;2023-05-09T00:57:25;12.38;;;9.27;;
47812;SDS011;34221;45.296;9.516;2023-05-09T00:57:39;12.80;;;9.68;;
47812;SDS011;34221;45.296;9.516;2023-05-09T00:57:54;11.70;;;9.52;;
47812;SDS011;34221;45.296;9.516;2023-05-09T00:58:10;12.10;;;9.50;;
47812;SDS011;34221;45.296;9.516;2023-05-09T00:58:24;13.45;;;9.45;;
47812;SDS011;34221;45.296;9.516;2023-05-09T00:58:40;13.15;;;9.50;;
47812;SDS011;34221;45.296;9.516;2023-05-09T00:58:55;12.65;;;9.93;;
47812;SDS011;34221;45.296;9.516;2023-05-09T00:59:10;12.27;;;9.93;;
47812;SDS011;34221;45.296;9.516;2023-05-09T00:59:25;11.46;;;9.36;;
47812;SDS011;34221;45.296;9.516;2023-05-09T00:59:40;11.90;;;9.68;;
47812;SDS011;34221;45.296;9.516;2023-05-09T00:59:55;14.05;;;10.07;;
47812;SDS011;34221;45.296;9.516;2023-05-09T01:00:10;14.50;;;9.85;;
47812;SDS011;34221;45.296;9.516;2023-05-09T01:00:26;13.25;;;9.48;;
47812;SDS011;34221;45.296;9.516;2023-05-09T01:00:41;13.38;;;9.45;;
47812;SDS011;34221;45.296;9.516;2023-05-09T01:00:56;12.43;;;9.65;;
47812;SDS011;34221;45.296;9.516;2023-05-09T01:01:13;11.38;;;9.63;;
47812;SDS011;34221;45.296;9.516;2023-05-09T01:01:27;12.48;;;9.80;;
47812;SDS011;34221;45.296;9.516;2023-05-09T01:01:42;13.30;;;10.10;;
47812;SDS011;34221;45.296;9.516;2023-05-09T01:01:58;12.85;;;10.07;;
47812;SDS011;34221;45.296;9.516;2023-05-09T01:02:13;13.00;;;10.25;;
47812;SDS011;34221;45.296;9.516;2023-05-09T01:02:29;13.57;;;10.30;;
47812;SDS011;34221;45.296;9.516;2023-05-09T01:02:46;12.60;;;9.80;;
47812;SDS011;34221;45.296;9.516;2023-05-09T01:03:06;10.77;;;9.15;;
47812;SDS011;34221;45.296;9.516;2023-05-09T01:03:21;12.55;;;10.00;;
47812;SDS011;34221;45.296;9.516;2023-05-09T01:03:37;14.73;;;10.43;;
47812;SDS011;34221;45.296;9.516;2023-05-09T01:03:52;14.02;;;9.93;;
47812;SDS011;34221;45.296;9.516;2023-05-09T01:04:08;12.27;;;9.63;;
47812;SDS011;34221;45.296;9.516;2023-05-09T01:04:24;12.70;;;9.40;;
47812;SDS011;34221;45.296;9.516;2023-05-09T01:04:39;14.00;;;9.60;;
47812;SDS011;34221;45.296;9.516;2023-05-09T01:04:54;14.40;;;9.57;;
47812;SDS011;34221;45.296;9.516;2023-05-09T01:05:09;14.20;;;9.38;;
47812;SDS011;34221;45.296;9.516;2023-05-09T01:05:26;13.45;;;9.45;;
47812;SDS011;34221;45.296;9.516;2023-05-09T01:05:51;12.85;;;10.27;;
47812;SDS011;34221;45.296;9.516;2023-05-09T01:06:12;12.65;;;9.52;;
47812;SDS011;34221;45.296;9.516;2023-05-09T01:07:21;12.52;;;9.50;;
47812;SDS011;34221;45.296;9.516;2023-05-09T01:08:12;13.50;;;9.90;;
47812;SDS011;34221;45.296;9.516;2023-05-09T01:08:46;13.38;;;9.95;;
47812;SDS011;34221;45.296;9.516;2023-05-09T01:09:07;12.65;;;10.18;;
47812;SDS011;34221;45.296;9.516;2023-05-09T01:10:00;13.43;;;9.45;;
47812;SDS011;34221;45.296;9.516;2023-05-09T01:10:47;11.93;;;9.30;;
47812;SDS011;34221;45.296;9.516;2023-05-09T01:11:17;11.77;;;9.25;;
47812;SDS011;34221;45.296;9.516;2023-05-09T01:13:15;12.25;;;9.77;;
47812;SDS011;34221;45.296;9.516;2023-05-09T01:16:25;13.25;;;10.45;;
47812;SDS011;34221;45.296;9.516;2023-05-09T01:16:52;16.80;;;10.75;;
47812;SDS011;34221;45.296;9.516;2023-05-09T01:17:45;13.43;;;9.57;;
47812;SDS011;34221;45.296;9.516;2023-05-09T01:18:28;14.70;;;10.23;;
47812;SDS011;34221;45.296;9.516;2023-05-09T01:19:35;14.13;;;10.93;;
47812;SDS011;34221;45.296;9.516;2023-05-09T01:20:10;13.18;;;10.55;;
47812;SDS011;34221;45.296;9.516;2023-05-09T01:20:32;12.82;;;9.55;;
47812;SDS011;34221;45.296;9.516;2023-05-09T01:21:00;13.30;;;9.80;;
47812;SDS011;34221;45.296;9.516;2023-05-09T01:21:25;15.13;;;10.32;;
47812;SDS011;34221;45.296;9.516;2023-05-09T01:21:42;15.35;;;11.05;;
47812;SDS011;34221;45.296;9.516;2023-05-09T01:22:00;14.18;;;10.52;;
47812;SDS011;34221;45.296;9.516;2023-05-09T01:22:22;12.15;;;9.60;;
47812;SDS011;34221;45.296;9.516;2023-05-09T01:22:44;13.40;;;9.98;;
47812;SDS011;34221;45.296;9.516;2023-05-09T01:23:10;13.75;;;10.25;;
47812;SDS011;34221;45.296;9.516;2023-05-09T01:24:04;13.63;;;10.77;;
47812;SDS011;34221;45.296;9.516;2023-05-09T01:26:02;15.65;;;10.77;;
47812;SDS011;34221;45.296;9.516;2023-05-09T01:27:28;16.38;;;11.07;;
47812;SDS011;34221;45.296;9.516;2023-05-09T01:29:47;14.27;;;10.70;;
47812;SDS011;34221;45.296;9.516;2023-05-09T01:30:09;14.13;;;10.45;;
47812;SDS011;34221;45.296;9.516;2023-05-09T01:30:26;14.18;;;10.45;;
47812;SDS011;34221;45.296;9.516;2023-05-09T01:30:43;12.93;;;10.38;;
47812;SDS011;34221;45.296;9.516;2023-05-09T01:30:59;14.15;;;10.88;;
47812;SDS011;34221;45.296;9.516;2023-05-09T01:31:16;15.52;;;10.88;;
47812;SDS011;34221;45.296;9.516;2023-05-09T01:31:33;14.18;;;10.65;;
47812;SDS011;34221;45.296;9.516;2023-05-09T01:31:53;14.35;;;11.20;;
47812;SDS011;34221;45.296;9.516;2023-05-09T01:32:11;14.95;;;11.25;;
47812;SDS011;34221;45.296;9.516;2023-05-09T01:32:35;13.88;;;10.55;;
47812;SDS011;34221;45.296;9.516;2023-05-09T01:32:52;13.85;;;10.73;;
47812;SDS011;34221;45.296;9.516;2023-05-09T01:33:14;13.77;;;11.13;;
47812;SDS011;34221;45.296;9.516;2023-05-09T01:33:32;14.82;;;11.55;;
47812;SDS011;34221;45.296;9.516;2023-05-09T01:33:53;15.70;;;11.18;;
47812;SDS011;34221;45.296;9.516;2023-05-09T01:34:11;16.02;;;11.40;;
47812;SDS011;34221;45.296;9.516;2023-05-09T01:34:29;15.32;;;11.57;;
47812;SDS011;34221;45.296;9.516;2023-05-09T01:34:47;15.18;;;11.27;;
47812;SDS011;34221;45.296;9.516;2023-05-09T01:35:06;15.70;;;11.05;;
47812;SDS011;34221;45.296;9.516;2023-05-09T01:35:25;14.75;;;10.95;;
47812;SDS011;34221;45.296;9.516;2023-05-09T01:35:48;14.55;;;10.25;;
47812;SDS011;34221;45.296;9.516;2023-05-09T01:36:07;13.88;;;10.85;;
47812;SDS011;34221;45.296;9.516;2023-05-09T01:36:26;14.50;;;11.27;;
47812;SDS011;34221;45.296;9.516;2023-05-09T01:36:45;14.15;;;11.07;;
47812;SDS011;34221;45.296;9.516;2023-05-09T01:37:03;14.53;;;11.57;;
47812;SDS011;34221;45.296;9.516;2023-05-09T01:37:23;13.27;;;10.88;;
47812;SDS011;34221;45.296;9.516;2023-05-09T01:37:43;14.35;;;10.98;;
47812;SDS011;34221;45.296;9.516;2023-05-09T01:38:10;15.52;;;11.40;;
47812;SDS011;34221;45.296;9.516;2023-05-09T01:38:28;15.40;;;11.37;;
47812;SDS011;34221;45.296;9.516;2023-05-09T01:38:45;15.20;;;11.15;;
47812;SDS011;34221;45.296;9.516;2023-05-09T01:39:03;15.47;;;10.97;;
47812;SDS011;34221;45.296;9.516;2023-05-09T01:39:20;15.98;;;11.38;;
47812;SDS011;34221;45.296;9.516;2023-05-09T01:39:37;16.33;;;12.00;;
47812;SDS011;34221;45.296;9.516;2023-05-09T01:39:55;15.70;;;11.30;;
47812;SDS011;34221;45.296;9.516;2023-05-09T01:40:14;16.20;;;12.18;;
47812;SDS011;34221;45.296;9.516;2023-05-09T01:40:31;14.70;;;12.10;;
47812;SDS011;34221;45.296;9.516;2023-05-09T01:40:48;14.30;;;11.55;;
47812;SDS011;34221;45.296;9.516;2023-05-09T01:41:07;15.05;;;11.30;;
47812;SDS011;34221;45.296;9.516;2023-05-09T01:41:24;14.10;;;11.13;;
47812;SDS011;34221;45.296;9.516;2023-05-09T01:41:44;14.70;;;11.70;;
47812;SDS011;34221;45.296;9.516;2023-05-09T01:42:00;15.17;;;11.20;;
47812;SDS011;34221;45.296;9.516;2023-05-09T01:42:18;14.52;;;11.05;;
47812;SDS011;34221;45.296;9.516;2023-05-09T01:42:38;14.63;;;11.45;;
47812;SDS011;34221;45.296;9.516;2023-05-09T01:42:57;16.90;;;11.52;;
47812;SDS011;34221;45.296;9.516;2023-05-09T01:43:15;16.60;;;11.75;;
47812;SDS011;34221;45.296;9.516;2023-05-09T01:43:32;15.25;;;11.63;;
47812;SDS011;34221;45.296;9.516;2023-05-09T01:43:49;13.63;;;11.20;;
47812;SDS011;34221;45.296;9.516;2023-05-09T01:44:05;15.27;;;11.73;;
47812;SDS011;34221;45.296;9.516;2023-05-09T01:44:24;16.33;;;11.80;;
47812;SDS011;34221;45.296;9.516;2023-05-09T01:44:41;15.32;;;12.35;;
47812;SDS011;34221;45.296;9.516;2023-05-09T01:44:58;15.85;;;12.10;;
47812;SDS011;34221;45.296;9.516;2023-05-09T01:45:13;15.07;;;11.52;;
47812;SDS011;34221;45.296;9.516;2023-05-09T01:45:30;14.35;;;11.40;;
47812;SDS011;34221;45.296;9.516;2023-05-09T01:45:47;13.80;;;11.27;;
47812;SDS011;34221;45.296;9.516;2023-05-09T01:46:03;15.07;;;11.68;;
47812;SDS011;34221;45.296;9.516;2023-05-09T01:46:19;15.15;;;11.68;;
47812;SDS011;34221;45.296;9.516;2023-05-09T01:46:36;15.35;;;11.70;;
47812;SDS011;34221;45.296;9.516;2023-05-09T01:46:51;15.57;;;11.77;;
47812;SDS011;34221;45.296;9.516;2023-05-09T01:47:07;16.10;;;11.85;;
47812;SDS011;34221;45.296;9.516;2023-05-09T01:47:23;16.23;;;11.98;;
47812;SDS011;34221;45.296;9.516;2023-05-09T01:47:40;14.32;;;11.73;;
47812;SDS011;34221;45.296;9.516;2023-05-09T01:47:56;14.70;;;11.23;;
47812;SDS011;34221;45.296;9.516;2023-05-09T01:48:11;16.63;;;11.57;;
47812;SDS011;34221;45.296;9.516;2023-05-09T01:48:27;17.48;;;12.32;;
47812;SDS011;34221;45.296;9.516;2023-05-09T01:48:44;15.95;;;12.35;;
47812;SDS011;34221;45.296;9.516;2023-05-09T01:49:00;14.95;;;12.13;;
47812;SDS011;34221;45.296;9.516;2023-05-09T01:49:16;16.25;;;11.93;;
47812;SDS011;34221;45.296;9.516;2023-05-09T01:49:36;15.80;;;11.48;;
47812;SDS011;34221;45.296;9.516;2023-05-09T01:49:53;15.82;;;12.50;;
47812;SDS011;34221;45.296;9.516;2023-05-09T01:50:10;17.38;;;12.80;;
47812;SDS011;34221;45.296;9.516;2023-05-09T01:50:25;23.45;;;13.10;;
47812;SDS011;34221;45.296;9.516;2023-05-09T01:50:46;21.40;;;12.43;;